Time;durP1;ratioP1;P1;durP2;ratioP2;P2;SDS_P1;SDS_P2;PMS_P1;PMS_P2;Temp;Humidity;BMP_temperature;BMP_pressure;BME280_temperature;BME280_humidity;BME280_pressure;Samples;Min_cycle;Max_cycle;Signal;HPM_P1;HPM_P2
2024/02/18 00:00:23;;;;;;;16.60;5.30;;;;;;;11.66;100.00;101382.50;5009689;28;20054;-61
2024/02/18 00:02:53;;;;;;;18.65;6.88;;;;;;;11.65;100.00;101380.09;5009046;28;20062;-60
2024/02/18 00:05:20;;;;;;;14.45;6.35;;;;;;;11.62;100.00;101387.91;4994633;28;20041;-60
2024/02/18 00:07:48;;;;;;;12.48;6.00;;;;;;;11.62;100.00;101389.91;5007514;28;20604;-62
2024/02/18 00:10:15;;;;;;;14.63;6.25;;;;;;;11.62;100.00;101384.34;5007480;28;20639;-60
2024/02/18 00:12:42;;;;;;;10.55;6.82;;;;;;;11.61;100.00;101379.94;5007754;28;20407;-60
2024/02/18 00:15:10;;;;;;;19.38;5.80;;;;;;;11.60;100.00;101387.44;5008917;28;20050;-60
2024/02/18 00:17:37;;;;;;;12.95;6.28;;;;;;;11.59;100.00;101402.47;5008135;28;20639;-59
2024/02/18 00:20:05;;;;;;;14.30;7.22;;;;;;;11.58;100.00;101406.38;5019226;28;20492;-60
2024/02/18 00:22:33;;;;;;;14.75;6.20;;;;;;;11.57;100.00;101396.44;5008581;28;20042;-60
2024/02/18 00:25:00;;;;;;;9.43;5.93;;;;;;;11.55;100.00;101393.19;5008461;28;20057;-60
2024/02/18 00:27:27;;;;;;;14.40;5.07;;;;;;;11.54;100.00;101391.56;5006589;28;20069;-60
2024/02/18 00:29:55;;;;;;;13.30;6.03;;;;;;;11.55;100.00;101392.38;5018356;28;20627;-60
2024/02/18 00:32:22;;;;;;;14.30;5.18;;;;;;;11.54;100.00;101410.97;5008705;28;20508;-60
2024/02/18 00:34:50;;;;;;;13.07;5.15;;;;;;;11.54;100.00;101399.09;5008394;28;20126;-60
2024/02/18 00:37:18;;;;;;;16.52;6.07;;;;;;;11.54;100.00;101402.66;5008283;28;20076;-60
2024/02/18 00:39:45;;;;;;;12.43;5.57;;;;;;;11.54;100.00;101397.09;5008670;28;20053;-60
2024/02/18 00:42:12;;;;;;;14.90;5.57;;;;;;;11.52;100.00;101399.41;5007696;28;20060;-60
2024/02/18 00:44:40;;;;;;;18.17;5.18;;;;;;;11.52;100.00;101396.63;5008023;28;20049;-60
2024/02/18 00:47:07;;;;;;;12.98;5.63;;;;;;;11.50;100.00;101406.44;5007997;28;20049;-60
2024/02/18 00:49:34;;;;;;;13.60;5.72;;;;;;;11.49;100.00;101400.06;5008043;28;20607;-60
2024/02/18 00:52:03;;;;;;;13.65;5.47;;;;;;;11.49;100.00;101402.84;5008397;28;20052;-59
2024/02/18 00:54:30;;;;;;;17.45;7.10;;;;;;;11.50;100.00;101401.72;5007628;28;20058;-60
2024/02/18 00:56:58;;;;;;;16.00;6.32;;;;;;;11.49;100.00;101413.94;5007969;28;20057;-59
2024/02/18 00:59:25;;;;;;;17.10;6.05;;;;;;;11.49;100.00;101411.16;5007208;28;20053;-60
2024/02/18 01:01:53;;;;;;;11.95;5.72;;;;;;;11.49;100.00;101405.63;5008249;28;20137;-60
2024/02/18 01:04:20;;;;;;;13.88;5.10;;;;;;;11.48;100.00;101405.97;5007340;28;20500;-60
2024/02/18 01:06:48;;;;;;;17.20;5.85;;;;;;;11.46;100.00;101416.59;5007988;28;20049;-60
2024/02/18 01:09:16;;;;;;;16.83;5.38;;;;;;;11.47;100.00;101412.66;5007587;28;20408;-60
2024/02/18 01:11:43;;;;;;;11.93;4.82;;;;;;;11.46;100.00;101417.38;5006771;28;20054;-60
2024/02/18 01:14:10;;;;;;;17.25;5.13;;;;;;;11.46;100.00;101427.69;5007352;28;20104;-60
2024/02/18 01:16:39;;;;;;;19.33;4.72;;;;;;;11.44;100.00;101416.91;5007959;28;20053;-60
2024/02/18 01:19:06;;;;;;;14.82;4.25;;;;;;;11.43;100.00;101417.25;5006861;28;20560;-59
2024/02/18 01:21:34;;;;;;;18.25;4.38;;;;;;;11.40;100.00;101421.50;5007664;28;20050;-59
2024/02/18 01:24:01;;;;;;;11.63;4.57;;;;;;;11.38;100.00;101421.03;5007675;28;20467;-60
2024/02/18 01:26:29;;;;;;;12.38;5.47;;;;;;;11.35;100.00;101427.25;5007123;28;20389;-60
2024/02/18 01:28:56;;;;;;;13.32;4.43;;;;;;;11.32;100.00;101419.59;5007274;28;20042;-60
2024/02/18 01:31:23;;;;;;;15.93;4.85;;;;;;;11.30;100.00;101416.34;5007216;28;20046;-59
2024/02/18 01:33:51;;;;;;;11.65;4.75;;;;;;;11.25;100.00;101422.03;5007359;28;20720;-60
2024/02/18 01:36:18;;;;;;;14.73;3.97;;;;;;;11.23;100.00;101420.75;5007093;28;20046;-60
2024/02/18 01:38:46;;;;;;;23.55;5.45;;;;;;;11.21;100.00;101421.09;5007474;28;20508;-61
2024/02/18 01:41:13;;;;;;;16.90;5.90;;;;;;;11.19;100.00;101417.03;5006992;28;20050;-59
2024/02/18 01:43:40;;;;;;;19.65;5.35;;;;;;;11.16;100.00;101421.28;5007070;28;20057;-60
2024/02/18 01:46:08;;;;;;;17.90;5.45;;;;;;;11.16;100.00;101417.69;5006885;28;20077;-62
2024/02/18 01:48:36;;;;;;;16.17;5.45;;;;;;;11.14;100.00;101423.59;5007140;28;20045;-59
2024/02/18 01:51:05;;;;;;;16.67;4.55;;;;;;;11.12;100.00;101425.06;5007026;28;20061;-59
2024/02/18 01:53:35;;;;;;;15.90;4.72;;;;;;;11.10;100.00;101417.06;5007115;28;20596;-59
2024/02/18 01:56:02;;;;;;;21.30;6.57;;;;;;;11.08;100.00;101422.13;5006524;28;20058;-60
2024/02/18 01:58:31;;;;;;;27.52;9.13;;;;;;;11.05;100.00;101422.81;4994010;28;20034;-60
2024/02/18 02:00:59;;;;;;;20.48;7.38;;;;;;;11.05;100.00;101419.22;5006609;28;20072;-59
2024/02/18 02:03:27;;;;;;;16.15;5.72;;;;;;;11.02;100.00;101417.91;5006515;28;20042;-60
2024/02/18 02:05:57;;;;;;;18.45;5.78;;;;;;;10.99;100.00;101419.38;5006215;28;20053;-60
2024/02/18 02:08:26;;;;;;;12.00;5.47;;;;;;;11.00;100.00;101422.97;5006387;28;20049;-59
2024/02/18 02:10:54;;;;;;;14.90;5.65;;;;;;;11.01;100.00;101419.06;5006749;28;20053;-59
2024/02/18 02:13:21;;;;;;;18.52;5.65;;;;;;;11.00;100.00;101420.22;5006215;28;20046;-59
2024/02/18 02:15:49;;;;;;;20.25;5.78;;;;;;;11.00;100.00;101422.97;5006006;28;20547;-59
2024/02/18 02:18:16;;;;;;;19.90;4.88;;;;;;;11.00;100.00;101409.94;5006640;28;20061;-60
2024/02/18 02:20:43;;;;;;;12.23;3.75;;;;;;;11.01;100.00;101419.06;5006365;28;20049;-61
2024/02/18 02:23:11;;;;;;;9.95;3.92;;;;;;;11.00;100.00;101412.72;5006884;28;20723;-60
2024/02/18 02:25:39;;;;;;;25.67;6.20;;;;;;;11.01;100.00;101416.31;5005808;28;20042;-60
2024/02/18 02:28:36;;;;;;;13.65;3.42;;;;;;;11.00;100.00;101411.91;5006572;28;20527;-60
2024/02/18 02:31:04;;;;;;;18.02;5.25;;;;;;;11.00;100.00;101420.22;5004963;28;20054;-59
2024/02/18 02:33:31;;;;;;;20.02;4.60;;;;;;;11.00;100.00;101414.66;5018814;28;20045;-59
2024/02/18 02:35:59;;;;;;;20.15;4.53;;;;;;;10.98;100.00;101416.97;5006420;28;20042;-60
2024/02/18 02:38:26;;;;;;;20.25;4.47;;;;;;;10.94;100.00;101416.81;5005754;28;20389;-60
2024/02/18 02:40:53;;;;;;;14.80;4.20;;;;;;;10.91;100.00;101416.66;5006717;28;20050;-60
2024/02/18 02:43:21;;;;;;;27.52;6.13;;;;;;;10.88;100.00;101428.41;5006324;28;20050;-60
2024/02/18 02:45:48;;;;;;;19.60;3.70;;;;;;;10.85;100.00;101420.75;5006017;28;20050;-60
2024/02/18 02:48:15;;;;;;;17.65;4.10;;;;;;;10.82;100.00;101410.34;5006131;28;20062;-59
2024/02/18 02:50:42;;;;;;;22.77;5.03;;;;;;;10.79;100.00;101422.06;5006817;28;20054;-59
2024/02/18 02:53:10;;;;;;;22.20;5.20;;;;;;;10.75;100.00;101424.69;5006239;28;20046;-60
2024/02/18 02:55:37;;;;;;;18.77;4.25;;;;;;;10.73;100.00;101426.16;5006076;28;20049;-59
2024/02/18 02:58:05;;;;;;;22.23;5.55;;;;;;;10.70;100.00;101415.72;5006294;28;20041;-60
2024/02/18 03:00:34;;;;;;;22.35;5.95;;;;;;;10.67;100.00;101430.25;5100809;22;20041;31
2024/02/18 03:03:01;;;;;;;40.90;7.38;;;;;;;10.65;100.00;101429.75;4985831;28;20069;-59
2024/02/18 03:05:28;;;;;;;23.38;6.70;;;;;;;10.61;100.00;101418.53;4986647;28;20077;-59
2024/02/18 03:07:56;;;;;;;21.38;5.72;;;;;;;10.60;100.00;101421.63;4984855;28;20058;-59
2024/02/18 03:10:23;;;;;;;26.88;5.88;;;;;;;10.58;100.00;101418.38;4986728;28;20073;-59
2024/02/18 03:12:50;;;;;;;23.65;5.50;;;;;;;10.56;100.00;101423.44;4987224;28;20416;-59
2024/02/18 03:15:18;;;;;;;19.20;6.22;;;;;;;10.54;100.00;101428.50;4986568;28;20046;-60
2024/02/18 03:17:45;;;;;;;23.85;5.97;;;;;;;10.51;100.00;101427.16;4993713;28;20057;-60
2024/02/18 03:20:13;;;;;;;19.48;5.55;;;;;;;10.50;100.00;101416.44;5005938;28;20050;-60
2024/02/18 03:22:40;;;;;;;16.13;5.93;;;;;;;10.47;100.00;101419.84;5009641;28;20396;-59
2024/02/18 03:25:08;;;;;;;20.25;4.90;;;;;;;10.44;100.00;101423.28;5010225;28;20053;-59
2024/02/18 03:27:35;;;;;;;23.38;4.72;;;;;;;10.40;100.00;101425.91;5009807;28;20057;-59
2024/02/18 03:30:03;;;;;;;28.33;5.65;;;;;;;10.35;100.00;101421.31;5009609;28;20404;-59
2024/02/18 03:32:35;;;;;;;17.63;4.40;;;;;;;10.32;100.00;101422.00;5010050;28;20419;-59
2024/02/18 03:35:06;;;;;;;21.80;4.85;;;;;;;10.28;100.00;101415.47;5010050;28;20053;-59
2024/02/18 03:37:34;;;;;;;26.55;4.25;;;;;;;10.25;100.00;101426.38;5009552;28;20049;-59
2024/02/18 03:40:01;;;;;;;34.28;5.50;;;;;;;10.20;100.00;101424.59;5009838;28;20050;-59
2024/02/18 03:42:29;;;;;;;25.88;5.75;;;;;;;10.17;100.00;101430.78;5008395;28;20054;-59
2024/02/18 03:44:56;;;;;;;21.20;5.25;;;;;;;10.15;100.00;101426.72;5009268;28;20042;-59
2024/02/18 03:47:23;;;;;;;23.50;4.80;;;;;;;10.12;100.00;101427.34;5009370;28;20064;-59
2024/02/18 03:49:51;;;;;;;29.30;5.88;;;;;;;10.06;100.00;101423.91;5009530;28;20507;-59
2024/02/18 03:52:19;;;;;;;22.00;4.65;;;;;;;10.04;100.00;101423.44;5009594;28;20393;-59
2024/02/18 03:54:46;;;;;;;25.88;5.80;;;;;;;10.01;100.00;101429.59;5009601;28;20050;-59
2024/02/18 03:57:13;;;;;;;21.42;4.82;;;;;;;10.00;100.00;101430.78;4994868;28;20058;-59
2024/02/18 03:59:42;;;;;;;21.45;5.13;;;;;;;9.97;100.00;101425.88;4989921;28;20064;-59
2024/02/18 04:02:09;;;;;;;22.80;4.28;;;;;;;9.95;100.00;101425.41;4989518;28;20061;-60
2024/02/18 04:04:36;;;;;;;17.58;5.90;;;;;;;9.93;100.00;101429.63;4989856;28;20555;-59
2024/02/18 04:07:04;;;;;;;26.48;6.03;;;;;;;9.90;100.00;101431.06;4989749;28;20436;-59
2024/02/18 04:09:31;;;;;;;31.40;6.35;;;;;;;9.86;100.00;101424.56;4997434;28;20053;-59
2024/02/18 04:11:59;;;;;;;21.63;5.43;;;;;;;9.85;100.00;101417.41;5007373;28;20038;-59
2024/02/18 04:14:27;;;;;;;23.30;5.57;;;;;;;9.82;100.00;101418.06;5009181;28;20538;-59
2024/02/18 04:16:54;;;;;;;26.85;7.35;;;;;;;9.79;100.00;101424.25;5009128;28;20061;-59
2024/02/18 04:19:21;;;;;;;20.67;6.97;;;;;;;9.78;100.00;101426.19;5008954;28;20041;-59
2024/02/18 04:21:49;;;;;;;35.10;6.03;;;;;;;9.76;100.00;101434.00;5008682;28;20064;-59
2024/02/18 04:24:16;;;;;;;23.20;4.80;;;;;;;9.75;100.00;101428.78;5008741;28;20486;-59
2024/02/18 04:26:43;;;;;;;24.50;5.57;;;;;;;9.74;100.00;101435.47;5008782;28;20054;-59
2024/02/18 04:29:10;;;;;;;26.75;6.00;;;;;;;9.73;100.00;101436.59;5008988;28;20546;-60
2024/02/18 04:31:40;;;;;;;30.75;7.50;;;;;;;9.70;100.00;101438.03;5008696;28;20050;-59
2024/02/18 04:34:08;;;;;;;24.42;7.15;;;;;;;9.69;100.00;101438.34;5008690;28;20053;-60
2024/02/18 04:36:35;;;;;;;23.55;5.70;;;;;;;9.70;100.00;101434.47;5005135;28;20056;-60
2024/02/18 04:39:03;;;;;;;39.17;8.38;;;;;;;9.69;100.00;101433.63;4987819;28;20046;-60
2024/02/18 04:41:30;;;;;;;22.98;5.50;;;;;;;9.70;100.00;101429.75;4988667;28;20045;-60
2024/02/18 04:43:57;;;;;;;27.55;7.57;;;;;;;9.70;100.00;101440.81;4988360;28;20399;-59
2024/02/18 04:46:24;;;;;;;31.48;7.22;;;;;;;9.72;100.00;101434.94;4988801;28;20054;-60
2024/02/18 04:48:53;;;;;;;27.95;5.13;;;;;;;9.71;100.00;101438.88;4988889;28;20042;-59
2024/02/18 04:51:20;;;;;;;26.58;5.60;;;;;;;9.72;100.00;101452.34;4988235;28;20054;-60
2024/02/18 04:53:48;;;;;;;24.00;6.40;;;;;;;9.73;100.00;101436.59;4988531;28;20095;-59
2024/02/18 04:56:15;;;;;;;32.40;6.82;;;;;;;9.73;100.00;101442.94;4982563;28;20051;-59
2024/02/18 04:58:42;;;;;;;34.90;6.35;;;;;;;9.74;100.00;101443.75;4984831;28;20080;-59
2024/02/18 05:01:10;;;;;;;25.13;5.85;;;;;;;9.75;100.00;101446.19;4988392;28;20054;-60
2024/02/18 05:03:37;;;;;;;30.60;5.65;;;;;;;9.76;100.00;101447.00;4988399;28;20053;-59
2024/02/18 05:06:08;;;;;;;16.88;4.82;;;;;;;9.76;100.00;101456.13;4983603;28;20057;-59
2024/02/18 05:08:36;;;;;;;17.83;5.75;;;;;;;9.79;100.00;101454.66;4986922;28;20061;-60
2024/02/18 05:11:04;;;;;;;32.60;5.60;;;;;;;9.79;100.00;101455.44;4995836;28;20065;-59
2024/02/18 05:13:31;;;;;;;32.25;6.30;;;;;;;9.80;100.00;101457.09;4988342;28;20047;-60
2024/02/18 05:15:58;;;;;;;25.02;5.45;;;;;;;9.80;100.00;101459.03;4988505;28;20718;-59
2024/02/18 05:18:26;;;;;;;25.95;5.50;;;;;;;9.79;100.00;101462.94;4987661;28;20511;-59
2024/02/18 05:20:53;;;;;;;34.78;7.20;;;;;;;9.78;100.00;101472.38;4988132;28;20062;-59
2024/02/18 05:23:21;;;;;;;35.45;7.35;;;;;;;9.77;100.00;101470.72;4987528;28;20073;-59
2024/02/18 05:25:48;;;;;;;28.67;6.97;;;;;;;9.75;100.00;101479.38;4987105;28;20065;-59
2024/02/18 05:28:15;;;;;;;26.67;5.95;;;;;;;9.72;100.00;101474.47;4988195;28;20070;-60
2024/02/18 05:30:44;;;;;;;32.22;6.70;;;;;;;9.72;100.00;101476.41;4987503;28;20049;-60
2024/02/18 05:33:12;;;;;;;59.60;7.07;;;;;;;9.69;100.00;101479.81;4987962;28;20047;-59
2024/02/18 05:35:39;;;;;;;24.48;5.28;;;;;;;9.69;100.00;101480.66;4988274;28;20402;-61
2024/02/18 05:38:07;;;;;;;26.67;6.38;;;;;;;9.69;100.00;101491.69;4978483;28;20528;-59
2024/02/18 05:40:34;;;;;;;34.38;6.55;;;;;;;9.71;100.00;101489.47;5008071;28;20056;-59
2024/02/18 05:43:02;;;;;;;26.40;6.60;;;;;;;9.72;100.00;101490.25;5008148;28;20500;-60
2024/02/18 05:45:31;;;;;;;22.42;4.97;;;;;;;9.72;100.00;101490.25;5006803;28;20057;-60
2024/02/18 05:47:58;;;;;;;30.42;5.43;;;;;;;9.73;100.00;101491.88;5008041;28;20050;-59
2024/02/18 05:50:26;;;;;;;37.88;7.57;;;;;;;9.76;100.00;101499.53;5007583;28;20049;-59
2024/02/18 05:52:53;;;;;;;32.15;7.70;;;;;;;9.77;100.00;101492.84;5007681;28;20500;-59
2024/02/18 05:55:21;;;;;;;32.53;7.15;;;;;;;9.80;100.00;101503.28;5007017;28;20050;-59
2024/02/18 05:57:48;;;;;;;30.60;6.30;;;;;;;9.81;100.00;101510.44;4987566;28;20078;-59
2024/02/18 06:00:17;;;;;;;43.13;10.07;;;;;;;9.82;100.00;101501.03;4987750;28;20058;-58
2024/02/18 06:02:45;;;;;;;43.47;7.10;;;;;;;9.82;100.00;101505.75;4987499;28;20066;-58
2024/02/18 06:05:17;;;;;;;24.38;6.78;;;;;;;9.82;100.00;101506.56;4987819;28;20038;-59
2024/02/18 06:07:46;;;;;;;25.15;6.25;;;;;;;9.84;100.00;101507.03;4987703;28;20077;-55
2024/02/18 06:10:13;;;;;;;39.47;7.10;;;;;;;9.84;100.00;101503.47;5001426;28;20054;-58
2024/02/18 06:12:41;;;;;;;27.00;6.65;;;;;;;9.84;100.00;101515.34;5007330;28;20053;-58
2024/02/18 06:15:09;;;;;;;33.25;6.13;;;;;;;9.85;100.00;101505.88;5006953;28;20054;-58
2024/02/18 06:17:36;;;;;;;31.55;7.55;;;;;;;9.85;100.00;101516.94;5000865;28;20046;-57
2024/02/18 06:20:04;;;;;;;35.53;6.32;;;;;;;9.85;100.00;101511.41;4987929;28;20061;-59
2024/02/18 06:22:32;;;;;;;32.30;7.93;;;;;;;9.84;100.00;101504.28;4987583;28;20648;-58
2024/02/18 06:24:59;;;;;;;26.02;7.55;;;;;;;9.85;100.00;101511.41;4986982;28;20055;-58
2024/02/18 06:27:27;;;;;;;33.45;6.10;;;;;;;9.86;100.00;101512.25;4987106;28;20056;-57
2024/02/18 06:29:54;;;;;;;29.30;6.03;;;;;;;9.86;100.00;101512.25;4987206;28;20050;-57
2024/02/18 06:32:21;;;;;;;30.75;7.30;;;;;;;9.86;100.00;101515.00;4987249;28;20051;-57
2024/02/18 06:34:48;;;;;;;35.38;9.32;;;;;;;9.85;100.00;101516.94;4986948;28;20050;-57
2024/02/18 06:37:16;;;;;;;34.75;8.98;;;;;;;9.86;100.00;101520.53;4985704;28;20519;-56
2024/02/18 06:39:43;;;;;;;37.72;7.47;;;;;;;9.86;100.00;101513.06;4987328;28;20050;-59
2024/02/18 06:42:11;;;;;;;35.45;8.45;;;;;;;9.87;100.00;101516.66;4986759;28;20045;-55
2024/02/18 06:44:38;;;;;;;47.03;10.90;;;;;;;9.86;100.00;101524.13;4987343;28;20053;-58
2024/02/18 06:47:05;;;;;;;40.15;8.18;;;;;;;9.87;100.00;101519.41;4987119;28;20050;-57
2024/02/18 06:49:33;;;;;;;26.90;6.78;;;;;;;9.85;100.00;101522.47;4987323;28;20061;-57
2024/02/18 06:52:00;;;;;;;43.83;7.60;;;;;;;9.85;100.00;101522.47;4987122;28;20063;-57
2024/02/18 06:54:27;;;;;;;33.70;7.07;;;;;;;9.85;100.00;101521.69;4985041;28;20054;-59
2024/02/18 06:56:55;;;;;;;22.90;6.97;;;;;;;9.85;100.00;101522.47;4989309;28;20638;-58
2024/02/18 06:59:22;;;;;;;29.70;7.38;;;;;;;9.83;100.00;101516.47;4973790;28;20054;-58
2024/02/18 07:01:49;;;;;;;32.30;7.40;;;;;;;9.82;100.00;101523.94;4990997;28;20058;-57
2024/02/18 07:04:17;;;;;;;28.65;6.15;;;;;;;9.80;100.00;101517.94;4990853;28;20567;-59
2024/02/18 07:06:44;;;;;;;23.58;5.93;;;;;;;9.80;100.00;101536.47;4987780;28;20058;-57
2024/02/18 07:09:12;;;;;;;27.55;6.22;;;;;;;9.76;100.00;101527.19;4991615;28;20043;-56
2024/02/18 07:11:39;;;;;;;32.60;6.70;;;;;;;9.72;100.00;101523.44;4991122;28;20050;-56
2024/02/18 07:14:07;;;;;;;32.15;6.93;;;;;;;9.70;100.00;101521.00;4990406;28;20547;-57
2024/02/18 07:16:34;;;;;;;32.30;6.47;;;;;;;9.69;100.00;101526.81;4977355;28;20488;-55
2024/02/18 07:19:01;;;;;;;23.45;6.25;;;;;;;9.66;100.00;101527.50;4997148;28;20057;-58
2024/02/18 07:21:30;;;;;;;28.48;7.82;;;;;;;9.66;100.00;101538.56;4989382;28;20046;-58
2024/02/18 07:23:57;;;;;;;27.83;6.05;;;;;;;9.63;100.00;101541.94;4989859;28;20619;-58
2024/02/18 07:26:24;;;;;;;27.73;6.22;;;;;;;9.60;100.00;101537.88;4990223;28;20057;-59
2024/02/18 07:28:52;;;;;;;27.55;5.60;;;;;;;9.58;100.00;101550.38;4990072;28;20042;-58
2024/02/18 07:31:20;;;;;;;37.00;7.72;;;;;;;9.55;100.00;101549.09;4990039;28;20062;-56
2024/02/18 07:33:47;;;;;;;30.15;9.13;;;;;;;9.54;100.00;101555.72;4990769;28;20047;-58
2024/02/18 07:36:14;;;;;;;23.80;6.70;;;;;;;9.51;100.00;101556.38;4989969;28;20049;-59
2024/02/18 07:38:42;;;;;;;31.45;8.68;;;;;;;9.49;100.00;101563.34;4989847;28;20504;-59
2024/02/18 07:41:09;;;;;;;36.83;7.47;;;;;;;9.47;100.00;101571.16;4990485;28;20330;-61
2024/02/18 07:43:36;;;;;;;32.92;7.60;;;;;;;9.43;100.00;101578.41;4989969;28;20496;-59
2024/02/18 07:46:04;;;;;;;36.50;7.43;;;;;;;9.41;100.00;101577.94;4989272;28;20504;-57
2024/02/18 07:48:31;;;;;;;29.25;7.07;;;;;;;9.40;100.00;101592.91;4990539;28;20061;-57
2024/02/18 07:50:59;;;;;;;33.58;7.53;;;;;;;9.39;100.00;101596.78;4990600;28;20259;-58
2024/02/18 07:53:26;;;;;;;31.52;6.35;;;;;;;9.38;100.00;101598.72;4990748;28;20054;-57
2024/02/18 07:55:53;;;;;;;35.22;8.68;;;;;;;9.41;100.00;101600.03;4989938;28;20054;-60
2024/02/18 07:58:21;;;;;;;27.17;6.05;;;;;;;9.45;100.00;101604.63;4990157;28;20050;-59
2024/02/18 08:00:48;;;;;;;32.22;7.03;;;;;;;9.50;100.00;101603.69;4991049;28;20050;-60
2024/02/18 08:03:16;;;;;;;20.70;6.18;;;;;;;9.53;100.00;101611.34;4990824;28;20058;-60
2024/02/18 08:05:43;;;;;;;29.75;6.90;;;;;;;9.57;100.00;101615.09;4990394;28;20066;-59
2024/02/18 08:08:10;;;;;;;27.45;6.82;;;;;;;9.60;100.00;101604.22;4990316;28;20135;-59
2024/02/18 08:10:38;;;;;;;26.10;6.90;;;;;;;9.64;100.00;101607.16;5007357;28;20050;-59
2024/02/18 08:13:06;;;;;;;35.28;8.68;;;;;;;9.65;100.00;101620.69;5010113;28;20045;-59
2024/02/18 08:15:33;;;;;;;29.63;10.93;;;;;;;9.68;100.00;101627.53;5009755;28;20057;-59
2024/02/18 08:18:00;;;;;;;27.10;7.35;;;;;;;9.71;100.00;101624.13;5001398;28;20039;-58
2024/02/18 08:20:28;;;;;;;23.38;7.10;;;;;;;9.73;100.00;101627.38;4989604;28;20093;-60
2024/02/18 08:22:55;;;;;;;27.58;6.40;;;;;;;9.74;100.00;101631.78;4990122;28;20053;-60
2024/02/18 08:25:22;;;;;;;21.85;7.82;;;;;;;9.75;100.00;101644.47;4989974;28;20058;-60
2024/02/18 08:27:50;;;;;;;25.50;6.57;;;;;;;9.77;100.00;101644.94;4990201;28;20050;-60
2024/02/18 08:30:17;;;;;;;29.77;5.75;;;;;;;9.81;100.00;101645.97;4990178;28;20061;-59
2024/02/18 08:32:45;;;;;;;32.42;6.05;;;;;;;9.80;100.00;101655.38;4990012;28;20053;-61
2024/02/18 08:35:12;;;;;;;33.83;7.28;;;;;;;9.79;100.00;101653.78;4989036;28;20065;-60
2024/02/18 08:37:40;;;;;;;27.33;6.13;;;;;;;9.78;100.00;101666.78;4989976;28;20049;-59
2024/02/18 08:40:10;;;;;;;30.63;7.45;;;;;;;9.79;100.00;101662.84;4990100;28;20057;-60
2024/02/18 08:42:37;;;;;;;30.35;6.57;;;;;;;9.82;100.00;101661.44;4990300;28;20499;-60
2024/02/18 08:45:05;;;;;;;25.23;7.65;;;;;;;9.83;100.00;101665.81;4990090;28;20054;-60
2024/02/18 08:47:32;;;;;;;28.02;6.97;;;;;;;9.85;100.00;101669.06;5005526;28;20042;-60
2024/02/18 08:50:01;;;;;;;27.17;6.63;;;;;;;9.85;100.00;101688.44;5009541;28;20078;-59
2024/02/18 08:52:29;;;;;;;32.00;6.05;;;;;;;9.87;100.00;101683.41;5009167;28;20050;-60
2024/02/18 08:54:57;;;;;;;31.98;6.72;;;;;;;9.90;100.00;101680.00;4999906;28;20050;-59
2024/02/18 08:57:24;;;;;;;26.13;6.38;;;;;;;9.90;100.00;101693.81;4989104;28;20057;-59
2024/02/18 08:59:51;;;;;;;28.52;6.30;;;;;;;9.94;100.00;101696.78;4989809;28;20081;-59
2024/02/18 09:02:19;;;;;;;24.77;6.55;;;;;;;9.99;100.00;101693.88;4988692;28;20073;-56
2024/02/18 09:04:46;;;;;;;31.98;6.22;;;;;;;10.05;100.00;101692.59;4988781;28;20057;-58
2024/02/18 09:07:14;;;;;;;28.83;6.63;;;;;;;10.08;100.00;101689.22;4987356;28;20048;-57
2024/02/18 09:09:41;;;;;;;31.10;6.53;;;;;;;10.09;100.00;101699.94;4991240;28;20072;-59
2024/02/18 09:12:09;;;;;;;28.48;6.28;;;;;;;10.09;100.00;101699.94;4988596;28;20053;-61
2024/02/18 09:14:37;;;;;;;38.00;7.88;;;;;;;10.11;100.00;101711.50;4988152;28;20342;-59
2024/02/18 09:17:04;;;;;;;22.20;6.80;;;;;;;10.11;100.00;101719.81;4989989;28;20062;-59
2024/02/18 09:19:31;;;;;;;25.92;6.45;;;;;;;10.11;100.00;101719.81;4994953;28;20050;-59
2024/02/18 09:21:59;;;;;;;29.48;6.00;;;;;;;10.12;100.00;101720.63;4988296;28;20057;-60
2024/02/18 09:24:26;;;;;;;34.22;7.90;;;;;;;10.14;100.00;101721.97;4988904;28;20543;-59
2024/02/18 09:26:54;;;;;;;27.13;6.07;;;;;;;10.17;100.00;101728.81;4989181;28;20054;-56
2024/02/18 09:29:21;;;;;;;30.60;7.18;;;;;;;10.18;100.00;101724.94;4988807;28;20050;-59
2024/02/18 09:31:48;;;;;;;19.88;5.95;;;;;;;10.20;100.00;101734.53;4988156;28;20046;-59
2024/02/18 09:34:16;;;;;;;20.67;5.50;;;;;;;10.22;100.00;101735.03;4988655;28;20841;-59
2024/02/18 09:36:44;;;;;;;29.63;6.68;;;;;;;10.25;100.00;101742.69;4990679;28;20061;-59
2024/02/18 09:39:12;;;;;;;24.25;5.95;;;;;;;10.30;100.00;101733.44;4969248;28;20058;-59
2024/02/18 09:41:44;;;;;;;23.10;6.13;;;;;;;10.35;100.00;101739.66;4969364;28;20058;-59
2024/02/18 09:44:13;;;;;;;17.80;4.85;;;;;;;10.49;100.00;101734.00;4972454;28;20046;-59
2024/02/18 09:46:44;;;;;;;15.63;6.90;;;;;;;10.63;100.00;101742.19;4988725;28;20097;-60
2024/02/18 09:49:12;;;;;;;20.50;4.97;;;;;;;10.69;100.00;101740.91;4988662;28;20050;-60
2024/02/18 09:51:40;;;;;;;22.95;6.63;;;;;;;10.75;100.00;101745.97;4987900;28;20506;-59
2024/02/18 09:54:10;;;;;;;16.38;5.82;;;;;;;10.75;100.00;101736.88;4988700;28;20061;-59
2024/02/18 09:56:37;;;;;;;19.13;5.30;;;;;;;10.78;100.00;101750.03;4970920;28;20054;-59
2024/02/18 09:59:04;;;;;;;18.95;4.80;;;;;;;10.82;100.00;101751.03;4988025;28;20058;-60
2024/02/18 10:01:34;;;;;;;20.42;4.60;;;;;;;10.88;100.00;101755.31;4988010;28;20061;-60
2024/02/18 10:04:01;;;;;;;18.58;5.10;;;;;;;10.92;100.00;101753.50;4988014;28;20050;-60
2024/02/18 10:06:29;;;;;;;20.63;4.00;;;;;;;10.98;100.00;101755.81;4988732;28;20061;-59
2024/02/18 10:08:57;;;;;;;21.58;4.68;;;;;;;11.03;100.00;101754.84;4992291;28;20049;-59
2024/02/18 10:11:24;;;;;;;13.60;3.42;;;;;;;11.02;100.00;101747.66;5007729;28;20053;-59
2024/02/18 10:13:58;;;;;;;14.50;4.60;;;;;;;10.96;100.00;101757.28;4989391;28;20057;-60
2024/02/18 10:16:26;;;;;;;20.10;5.20;;;;;;;10.85;100.00;101755.94;4988253;28;20401;-60
2024/02/18 10:18:53;;;;;;;19.23;4.63;;;;;;;10.84;100.00;101770.94;4988918;28;20050;-59
2024/02/18 10:21:22;;;;;;;17.65;4.43;;;;;;;10.84;100.00;101771.75;4988027;28;20053;-59
2024/02/18 10:23:50;;;;;;;13.05;4.32;;;;;;;10.82;100.00;101775.97;4988211;28;20069;-61
2024/02/18 10:26:18;;;;;;;18.08;4.90;;;;;;;10.80;100.00;101781.81;4987730;28;20051;-62
2024/02/18 10:28:46;;;;;;;22.95;5.35;;;;;;;10.78;100.00;101789.66;4988236;28;20046;-61
2024/02/18 10:31:13;;;;;;;20.17;5.47;;;;;;;10.81;100.00;101794.53;4988421;28;20415;-61
2024/02/18 10:33:41;;;;;;;16.30;4.53;;;;;;;10.91;100.00;101799.78;4987759;28;20145;-62
2024/02/18 10:36:15;;;;;;;17.10;4.32;;;;;;;11.00;100.00;101813.66;4987668;28;20065;-63
2024/02/18 10:38:45;;;;;;;18.27;3.35;;;;;;;11.04;100.00;101809.09;4986936;28;20069;-61
2024/02/18 10:41:16;;;;;;;22.92;4.97;;;;;;;11.04;100.00;101819.41;4986711;28;20054;-61
2024/02/18 10:43:51;;;;;;;23.60;5.55;;;;;;;11.09;100.00;101825.59;4989497;28;20535;-61
2024/02/18 10:46:21;;;;;;;19.00;5.63;;;;;;;11.16;100.00;101831.47;4986629;28;20050;-61
2024/02/18 10:48:53;;;;;;;13.90;3.38;;;;;;;11.17;100.00;101843.41;4987370;28;20050;-62
2024/02/18 10:51:29;;;;;;;16.85;4.65;;;;;;;11.16;100.00;101845.34;4987094;28;20510;-63
2024/02/18 10:54:04;;;;;;;16.65;3.63;;;;;;;11.15;100.00;101846.47;4987312;28;20574;-62
2024/02/18 10:56:32;;;;;;;16.27;3.88;;;;;;;11.18;100.00;101856.91;4987790;28;20043;-60
2024/02/18 10:59:30;;;;;;;9.32;3.72;;;;;;;11.19;100.00;101860.50;4987156;28;20062;-61
2024/02/18 11:02:13;;;;;;;20.35;4.45;;;;;;;11.17;100.00;101874.72;4987400;28;20076;-61
2024/02/18 11:04:41;;;;;;;9.82;3.15;;;;;;;11.20;100.00;101887.91;4970462;28;20408;-61
2024/02/18 11:07:10;;;;;;;17.58;4.70;;;;;;;11.19;100.00;101897.38;4985289;28;20050;-63
2024/02/18 11:09:41;;;;;;;14.80;4.40;;;;;;;11.25;100.00;101898.03;4980584;28;20051;-61
2024/02/18 11:12:09;;;;;;;17.60;5.55;;;;;;;11.35;100.00;101898.56;4978681;28;20570;-62
2024/02/18 11:14:37;;;;;;;15.75;4.03;;;;;;;11.44;100.00;101902.16;4986837;28;20035;-61